sensor_id;sensor_type;location;lat;lon;timestamp;P1;durP1;ratioP1;P2;durP2;ratioP2
72573;SDS011;60603;52.548;13.420;2022-07-03T00:01:23;5.18;;;3.15;;
72573;SDS011;60603;52.548;13.420;2022-07-03T00:03:49;5.05;;;3.10;;
72573;SDS011;60603;52.548;13.420;2022-07-03T00:06:15;4.18;;;2.70;;
72573;SDS011;60603;52.548;13.420;2022-07-03T00:08:41;4.72;;;3.35;;
72573;SDS011;60603;52.548;13.420;2022-07-03T00:11:07;8.43;;;3.30;;
72573;SDS011;60603;52.548;13.420;2022-07-03T00:13:33;6.03;;;3.35;;
72573;SDS011;60603;52.548;13.420;2022-07-03T00:15:59;4.93;;;3.20;;
72573;SDS011;60603;52.548;13.420;2022-07-03T00:18:25;5.18;;;3.30;;
72573;SDS011;60603;52.548;13.420;2022-07-03T00:20:55;7.00;;;3.75;;
72573;SDS011;60603;52.548;13.420;2022-07-03T00:23:36;5.20;;;2.80;;
72573;SDS011;60603;52.548;13.420;2022-07-03T00:26:05;6.80;;;3.05;;
72573;SDS011;60603;52.548;13.420;2022-07-03T00:28:31;6.70;;;3.38;;
72573;SDS011;60603;52.548;13.420;2022-07-03T00:30:57;5.88;;;3.22;;
72573;SDS011;60603;52.548;13.420;2022-07-03T00:33:23;5.45;;;3.42;;
72573;SDS011;60603;52.548;13.420;2022-07-03T00:35:52;7.57;;;3.10;;
72573;SDS011;60603;52.548;13.420;2022-07-03T00:38:20;5.85;;;3.40;;
72573;SDS011;60603;52.548;13.420;2022-07-03T00:40:46;5.18;;;3.30;;
72573;SDS011;60603;52.548;13.420;2022-07-03T00:43:12;6.50;;;3.38;;
72573;SDS011;60603;52.548;13.420;2022-07-03T00:45:39;7.55;;;3.60;;
72573;SDS011;60603;52.548;13.420;2022-07-03T00:48:10;7.47;;;3.40;;
72573;SDS011;60603;52.548;13.420;2022-07-03T00:50:38;5.63;;;3.13;;
72573;SDS011;60603;52.548;13.420;2022-07-03T00:53:10;6.57;;;3.70;;
72573;SDS011;60603;52.548;13.420;2022-07-03T00:55:41;5.57;;;3.47;;
72573;SDS011;60603;52.548;13.420;2022-07-03T00:58:09;5.63;;;3.28;;
72573;SDS011;60603;52.548;13.420;2022-07-03T01:00:38;5.40;;;3.30;;
72573;SDS011;60603;52.548;13.420;2022-07-03T01:03:06;5.47;;;3.30;;
72573;SDS011;60603;52.548;13.420;2022-07-03T01:05:35;5.22;;;2.85;;
72573;SDS011;60603;52.548;13.420;2022-07-03T01:10:53;5.57;;;3.33;;
72573;SDS011;60603;52.548;13.420;2022-07-03T01:27:34;5.22;;;3.55;;
72573;SDS011;60603;52.548;13.420;2022-07-03T01:30:08;5.00;;;3.15;;
72573;SDS011;60603;52.548;13.420;2022-07-03T01:32:40;6.00;;;3.60;;
72573;SDS011;60603;52.548;13.420;2022-07-03T01:35:08;5.60;;;3.17;;
72573;SDS011;60603;52.548;13.420;2022-07-03T01:37:35;6.38;;;3.50;;
72573;SDS011;60603;52.548;13.420;2022-07-03T01:40:04;6.13;;;3.42;;
72573;SDS011;60603;52.548;13.420;2022-07-03T01:42:32;7.00;;;4.03;;
72573;SDS011;60603;52.548;13.420;2022-07-03T01:45:04;6.82;;;3.65;;
72573;SDS011;60603;52.548;13.420;2022-07-03T01:47:30;6.20;;;3.90;;
72573;SDS011;60603;52.548;13.420;2022-07-03T01:49:57;7.25;;;3.78;;
72573;SDS011;60603;52.548;13.420;2022-07-03T01:52:23;10.15;;;3.45;;
72573;SDS011;60603;52.548;13.420;2022-07-03T01:54:50;5.65;;;3.42;;
72573;SDS011;60603;52.548;13.420;2022-07-03T01:57:16;5.03;;;3.15;;
72573;SDS011;60603;52.548;13.420;2022-07-03T01:59:42;6.35;;;3.63;;
72573;SDS011;60603;52.548;13.420;2022-07-03T02:07:49;6.95;;;3.85;;
72573;SDS011;60603;52.548;13.420;2022-07-03T02:10:20;5.82;;;3.25;;
72573;SDS011;60603;52.548;13.420;2022-07-03T02:12:52;6.10;;;3.50;;
72573;SDS011;60603;52.548;13.420;2022-07-03T02:15:31;6.15;;;3.72;;
72573;SDS011;60603;52.548;13.420;2022-07-03T02:18:00;6.50;;;4.10;;
72573;SDS011;60603;52.548;13.420;2022-07-03T02:20:29;7.57;;;3.60;;
72573;SDS011;60603;52.548;13.420;2022-07-03T02:23:01;5.88;;;3.30;;
72573;SDS011;60603;52.548;13.420;2022-07-03T02:25:34;6.97;;;3.58;;
72573;SDS011;60603;52.548;13.420;2022-07-03T02:28:06;5.68;;;3.55;;
72573;SDS011;60603;52.548;13.420;2022-07-03T02:33:21;6.10;;;3.42;;
72573;SDS011;60603;52.548;13.420;2022-07-03T02:35:51;6.07;;;4.35;;
72573;SDS011;60603;52.548;13.420;2022-07-03T02:38:19;5.47;;;3.70;;
72573;SDS011;60603;52.548;13.420;2022-07-03T02:41:01;8.27;;;4.15;;
72573;SDS011;60603;52.548;13.420;2022-07-03T02:46:07;6.30;;;3.53;;
72573;SDS011;60603;52.548;13.420;2022-07-03T02:48:56;7.13;;;3.53;;
72573;SDS011;60603;52.548;13.420;2022-07-03T02:53:59;9.07;;;3.42;;
72573;SDS011;60603;52.548;13.420;2022-07-03T02:56:36;7.45;;;3.30;;
72573;SDS011;60603;52.548;13.420;2022-07-03T02:59:22;6.75;;;3.75;;
72573;SDS011;60603;52.548;13.420;2022-07-03T03:01:55;6.43;;;3.97;;
72573;SDS011;60603;52.548;13.420;2022-07-03T03:04:31;8.90;;;3.83;;
72573;SDS011;60603;52.548;13.420;2022-07-03T03:07:01;6.40;;;3.70;;
72573;SDS011;60603;52.548;13.420;2022-07-03T03:09:42;6.13;;;3.65;;
72573;SDS011;60603;52.548;13.420;2022-07-03T03:12:10;7.43;;;3.88;;
72573;SDS011;60603;52.548;13.420;2022-07-03T03:14:43;9.95;;;4.65;;
72573;SDS011;60603;52.548;13.420;2022-07-03T03:17:19;6.13;;;3.60;;
72573;SDS011;60603;52.548;13.420;2022-07-03T03:19:51;5.75;;;3.70;;
72573;SDS011;60603;52.548;13.420;2022-07-03T03:22:24;6.60;;;4.43;;
72573;SDS011;60603;52.548;13.420;2022-07-03T03:24:54;6.25;;;3.55;;
72573;SDS011;60603;52.548;13.420;2022-07-03T03:27:20;8.15;;;4.15;;
72573;SDS011;60603;52.548;13.420;2022-07-03T03:29:46;6.53;;;3.80;;
72573;SDS011;60603;52.548;13.420;2022-07-03T03:32:12;5.88;;;3.55;;
72573;SDS011;60603;52.548;13.420;2022-07-03T03:34:38;7.53;;;3.50;;
72573;SDS011;60603;52.548;13.420;2022-07-03T03:37:06;5.55;;;3.55;;
72573;SDS011;60603;52.548;13.420;2022-07-03T03:39:32;6.55;;;3.55;;
72573;SDS011;60603;52.548;13.420;2022-07-03T03:41:58;5.88;;;3.67;;
72573;SDS011;60603;52.548;13.420;2022-07-03T03:44:26;6.72;;;3.88;;
72573;SDS011;60603;52.548;13.420;2022-07-03T03:46:52;5.50;;;3.90;;
72573;SDS011;60603;52.548;13.420;2022-07-03T03:49:17;4.97;;;3.03;;
72573;SDS011;60603;52.548;13.420;2022-07-03T03:51:43;6.85;;;3.72;;
72573;SDS011;60603;52.548;13.420;2022-07-03T03:54:09;5.43;;;3.50;;
72573;SDS011;60603;52.548;13.420;2022-07-03T03:56:35;7.55;;;3.80;;
72573;SDS011;60603;52.548;13.420;2022-07-03T03:59:00;6.28;;;3.38;;
72573;SDS011;60603;52.548;13.420;2022-07-03T04:01:26;6.20;;;3.60;;
72573;SDS011;60603;52.548;13.420;2022-07-03T04:03:52;5.30;;;3.15;;
72573;SDS011;60603;52.548;13.420;2022-07-03T04:06:20;5.32;;;3.50;;
72573;SDS011;60603;52.548;13.420;2022-07-03T04:08:46;6.15;;;3.60;;
72573;SDS011;60603;52.548;13.420;2022-07-03T04:11:12;4.97;;;3.35;;
72573;SDS011;60603;52.548;13.420;2022-07-03T04:13:37;5.60;;;3.80;;
72573;SDS011;60603;52.548;13.420;2022-07-03T04:16:03;5.53;;;3.50;;
72573;SDS011;60603;52.548;13.420;2022-07-03T04:18:29;5.50;;;3.40;;
72573;SDS011;60603;52.548;13.420;2022-07-03T04:20:55;4.65;;;3.20;;
72573;SDS011;60603;52.548;13.420;2022-07-03T04:23:20;6.78;;;3.78;;
72573;SDS011;60603;52.548;13.420;2022-07-03T04:25:46;5.43;;;3.58;;
72573;SDS011;60603;52.548;13.420;2022-07-03T04:28:12;6.55;;;3.90;;
72573;SDS011;60603;52.548;13.420;2022-07-03T04:30:37;6.18;;;3.95;;
72573;SDS011;60603;52.548;13.420;2022-07-03T04:33:03;6.22;;;3.33;;
72573;SDS011;60603;52.548;13.420;2022-07-03T04:35:29;6.45;;;3.47;;
72573;SDS011;60603;52.548;13.420;2022-07-03T04:37:54;5.40;;;3.92;;
72573;SDS011;60603;52.548;13.420;2022-07-03T04:40:20;5.07;;;3.20;;
72573;SDS011;60603;52.548;13.420;2022-07-03T04:42:45;5.10;;;3.40;;
72573;SDS011;60603;52.548;13.420;2022-07-03T04:45:11;5.97;;;3.53;;
72573;SDS011;60603;52.548;13.420;2022-07-03T04:47:37;5.05;;;3.42;;
72573;SDS011;60603;52.548;13.420;2022-07-03T04:50:03;6.15;;;3.58;;
72573;SDS011;60603;52.548;13.420;2022-07-03T04:52:29;6.20;;;3.70;;
72573;SDS011;60603;52.548;13.420;2022-07-03T04:54:54;5.30;;;3.47;;
72573;SDS011;60603;52.548;13.420;2022-07-03T04:57:20;5.75;;;3.72;;
72573;SDS011;60603;52.548;13.420;2022-07-03T04:59:45;5.18;;;3.38;;
72573;SDS011;60603;52.548;13.420;2022-07-03T05:02:12;6.43;;;3.63;;
72573;SDS011;60603;52.548;13.420;2022-07-03T05:04:37;6.63;;;3.55;;
72573;SDS011;60603;52.548;13.420;2022-07-03T05:07:03;5.38;;;3.67;;
72573;SDS011;60603;52.548;13.420;2022-07-03T05:09:29;5.15;;;3.40;;
72573;SDS011;60603;52.548;13.420;2022-07-03T05:11:54;4.75;;;3.53;;
72573;SDS011;60603;52.548;13.420;2022-07-03T05:14:20;5.10;;;3.40;;
72573;SDS011;60603;52.548;13.420;2022-07-03T05:16:46;5.60;;;3.63;;
72573;SDS011;60603;52.548;13.420;2022-07-03T05:19:11;5.88;;;3.15;;
72573;SDS011;60603;52.548;13.420;2022-07-03T05:21:37;5.45;;;3.30;;
72573;SDS011;60603;52.548;13.420;2022-07-03T05:24:03;6.72;;;3.22;;
72573;SDS011;60603;52.548;13.420;2022-07-03T05:26:28;5.90;;;3.30;;
72573;SDS011;60603;52.548;13.420;2022-07-03T05:28:54;5.90;;;3.10;;
72573;SDS011;60603;52.548;13.420;2022-07-03T05:31:20;5.93;;;3.50;;
72573;SDS011;60603;52.548;13.420;2022-07-03T05:33:46;4.70;;;3.25;;
72573;SDS011;60603;52.548;13.420;2022-07-03T05:36:11;4.97;;;3.08;;
72573;SDS011;60603;52.548;13.420;2022-07-03T05:38:37;4.78;;;3.00;;
72573;SDS011;60603;52.548;13.420;2022-07-03T05:41:21;4.95;;;3.30;;
72573;SDS011;60603;52.548;13.420;2022-07-03T05:43:47;4.93;;;3.28;;
72573;SDS011;60603;52.548;13.420;2022-07-03T05:46:12;5.50;;;2.85;;
72573;SDS011;60603;52.548;13.420;2022-07-03T05:48:38;4.28;;;2.75;;
72573;SDS011;60603;52.548;13.420;2022-07-03T05:51:04;4.78;;;3.00;;
72573;SDS011;60603;52.548;13.420;2022-07-03T05:53:29;5.45;;;3.22;;
72573;SDS011;60603;52.548;13.420;2022-07-03T05:55:55;4.60;;;2.90;;
72573;SDS011;60603;52.548;13.420;2022-07-03T05:58:21;7.32;;;3.00;;
72573;SDS011;60603;52.548;13.420;2022-07-03T06:00:47;6.20;;;3.00;;
72573;SDS011;60603;52.548;13.420;2022-07-03T06:03:12;5.05;;;2.90;;
72573;SDS011;60603;52.548;13.420;2022-07-03T06:05:38;4.65;;;2.60;;
72573;SDS011;60603;52.548;13.420;2022-07-03T06:08:04;6.57;;;2.95;;
72573;SDS011;60603;52.548;13.420;2022-07-03T06:10:30;4.53;;;2.85;;
72573;SDS011;60603;52.548;13.420;2022-07-03T06:12:57;4.28;;;2.63;;
72573;SDS011;60603;52.548;13.420;2022-07-03T06:15:23;4.18;;;2.40;;
72573;SDS011;60603;52.548;13.420;2022-07-03T06:17:49;4.60;;;2.88;;
72573;SDS011;60603;52.548;13.420;2022-07-03T06:20:15;5.13;;;2.60;;
72573;SDS011;60603;52.548;13.420;2022-07-03T06:22:41;4.85;;;2.72;;
72573;SDS011;60603;52.548;13.420;2022-07-03T06:25:06;4.80;;;2.58;;
72573;SDS011;60603;52.548;13.420;2022-07-03T06:27:32;4.30;;;2.22;;
72573;SDS011;60603;52.548;13.420;2022-07-03T06:29:58;5.30;;;2.35;;
72573;SDS011;60603;52.548;13.420;2022-07-03T06:32:24;3.90;;;2.38;;
72573;SDS011;60603;52.548;13.420;2022-07-03T06:34:50;4.68;;;2.75;;
72573;SDS011;60603;52.548;13.420;2022-07-03T06:37:15;5.68;;;2.70;;
72573;SDS011;60603;52.548;13.420;2022-07-03T06:39:41;4.75;;;2.63;;
72573;SDS011;60603;52.548;13.420;2022-07-03T06:42:07;6.00;;;2.53;;
72573;SDS011;60603;52.548;13.420;2022-07-03T06:44:32;5.30;;;2.63;;
72573;SDS011;60603;52.548;13.420;2022-07-03T06:46:58;4.20;;;2.45;;
72573;SDS011;60603;52.548;13.420;2022-07-03T06:49:28;4.35;;;3.00;;
72573;SDS011;60603;52.548;13.420;2022-07-03T06:51:55;3.58;;;2.45;;
72573;SDS011;60603;52.548;13.420;2022-07-03T06:54:20;4.43;;;2.70;;
72573;SDS011;60603;52.548;13.420;2022-07-03T06:56:46;4.55;;;2.60;;
72573;SDS011;60603;52.548;13.420;2022-07-03T06:59:12;6.05;;;2.38;;
72573;SDS011;60603;52.548;13.420;2022-07-03T07:01:37;5.25;;;2.70;;
72573;SDS011;60603;52.548;13.420;2022-07-03T07:04:03;5.03;;;3.35;;
72573;SDS011;60603;52.548;13.420;2022-07-03T07:06:29;5.72;;;2.78;;
72573;SDS011;60603;52.548;13.420;2022-07-03T07:08:54;5.05;;;2.63;;
72573;SDS011;60603;52.548;13.420;2022-07-03T07:11:20;6.20;;;3.35;;
72573;SDS011;60603;52.548;13.420;2022-07-03T07:13:46;5.03;;;2.30;;
72573;SDS011;60603;52.548;13.420;2022-07-03T07:16:11;5.55;;;2.88;;
72573;SDS011;60603;52.548;13.420;2022-07-03T07:18:39;5.13;;;3.00;;
72573;SDS011;60603;52.548;13.420;2022-07-03T07:21:05;8.43;;;2.58;;
72573;SDS011;60603;52.548;13.420;2022-07-03T07:23:31;5.20;;;2.58;;
72573;SDS011;60603;52.548;13.420;2022-07-03T07:25:56;4.13;;;2.53;;
72573;SDS011;60603;52.548;13.420;2022-07-03T07:28:22;4.88;;;2.40;;
72573;SDS011;60603;52.548;13.420;2022-07-03T07:30:48;4.85;;;2.40;;
72573;SDS011;60603;52.548;13.420;2022-07-03T07:33:13;4.72;;;2.17;;
72573;SDS011;60603;52.548;13.420;2022-07-03T07:35:39;3.65;;;2.20;;
72573;SDS011;60603;52.548;13.420;2022-07-03T07:38:05;4.47;;;2.15;;
72573;SDS011;60603;52.548;13.420;2022-07-03T07:40:30;5.22;;;2.60;;
72573;SDS011;60603;52.548;13.420;2022-07-03T07:42:56;4.55;;;2.25;;
72573;SDS011;60603;52.548;13.420;2022-07-03T07:45:22;4.35;;;2.30;;
72573;SDS011;60603;52.548;13.420;2022-07-03T07:47:47;5.05;;;2.10;;
72573;SDS011;60603;52.548;13.420;2022-07-03T07:50:13;4.53;;;2.28;;
72573;SDS011;60603;52.548;13.420;2022-07-03T07:52:40;4.40;;;2.50;;
72573;SDS011;60603;52.548;13.420;2022-07-03T07:55:08;4.05;;;2.28;;
72573;SDS011;60603;52.548;13.420;2022-07-03T07:57:35;7.85;;;2.45;;
72573;SDS011;60603;52.548;13.420;2022-07-03T08:00:05;4.63;;;2.53;;
72573;SDS011;60603;52.548;13.420;2022-07-03T08:02:34;4.18;;;2.38;;
72573;SDS011;60603;52.548;13.420;2022-07-03T08:05:19;3.53;;;2.33;;
72573;SDS011;60603;52.548;13.420;2022-07-03T08:10:36;4.07;;;2.15;;
72573;SDS011;60603;52.548;13.420;2022-07-03T08:13:16;4.13;;;2.00;;
72573;SDS011;60603;52.548;13.420;2022-07-03T08:15:44;3.80;;;2.20;;
72573;SDS011;60603;52.548;13.420;2022-07-03T08:18:10;4.13;;;2.30;;
72573;SDS011;60603;52.548;13.420;2022-07-03T08:20:36;4.13;;;2.28;;
72573;SDS011;60603;52.548;13.420;2022-07-03T08:23:02;4.53;;;2.67;;
72573;SDS011;60603;52.548;13.420;2022-07-03T08:25:29;4.43;;;2.20;;
72573;SDS011;60603;52.548;13.420;2022-07-03T08:27:55;5.65;;;2.42;;
72573;SDS011;60603;52.548;13.420;2022-07-03T08:30:21;4.85;;;2.40;;
72573;SDS011;60603;52.548;13.420;2022-07-03T08:32:47;3.75;;;2.10;;
72573;SDS011;60603;52.548;13.420;2022-07-03T08:35:15;7.18;;;2.75;;
72573;SDS011;60603;52.548;13.420;2022-07-03T08:37:42;3.50;;;2.20;;
72573;SDS011;60603;52.548;13.420;2022-07-03T08:40:12;3.85;;;2.33;;
72573;SDS011;60603;52.548;13.420;2022-07-03T08:42:46;4.47;;;2.33;;
72573;SDS011;60603;52.548;13.420;2022-07-03T08:45:17;4.63;;;2.40;;
72573;SDS011;60603;52.548;13.420;2022-07-03T08:47:44;4.22;;;2.40;;
72573;SDS011;60603;52.548;13.420;2022-07-03T08:50:14;5.00;;;2.47;;
72573;SDS011;60603;52.548;13.420;2022-07-03T08:52:41;6.43;;;2.72;;
72573;SDS011;60603;52.548;13.420;2022-07-03T08:55:07;4.65;;;2.40;;
72573;SDS011;60603;52.548;13.420;2022-07-03T08:57:35;4.75;;;2.20;;
72573;SDS011;60603;52.548;13.420;2022-07-03T09:00:05;5.28;;;2.88;;
72573;SDS011;60603;52.548;13.420;2022-07-03T09:02:32;4.93;;;2.30;;
72573;SDS011;60603;52.548;13.420;2022-07-03T09:04:58;4.63;;;2.30;;
72573;SDS011;60603;52.548;13.420;2022-07-03T09:07:27;5.05;;;2.47;;
72573;SDS011;60603;52.548;13.420;2022-07-03T09:09:55;4.07;;;2.42;;
72573;SDS011;60603;52.548;13.420;2022-07-03T09:12:21;4.20;;;2.42;;
72573;SDS011;60603;52.548;13.420;2022-07-03T09:14:47;3.80;;;2.10;;
72573;SDS011;60603;52.548;13.420;2022-07-03T09:17:13;3.47;;;2.10;;
72573;SDS011;60603;52.548;13.420;2022-07-03T09:24:48;5.28;;;2.22;;
72573;SDS011;60603;52.548;13.420;2022-07-03T09:27:16;5.20;;;2.70;;
72573;SDS011;60603;52.548;13.420;2022-07-03T09:35:13;4.50;;;2.40;;
72573;SDS011;60603;52.548;13.420;2022-07-03T09:37:40;4.45;;;2.42;;
72573;SDS011;60603;52.548;13.420;2022-07-03T09:40:07;3.80;;;2.20;;
72573;SDS011;60603;52.548;13.420;2022-07-03T09:42:32;4.15;;;2.00;;
72573;SDS011;60603;52.548;13.420;2022-07-03T09:44:58;8.65;;;5.22;;
72573;SDS011;60603;52.548;13.420;2022-07-03T09:47:24;4.88;;;2.20;;
72573;SDS011;60603;52.548;13.420;2022-07-03T09:54:59;4.07;;;1.95;;
72573;SDS011;60603;52.548;13.420;2022-07-03T09:57:35;5.47;;;2.25;;
72573;SDS011;60603;52.548;13.420;2022-07-03T10:00:18;6.50;;;3.78;;
72573;SDS011;60603;52.548;13.420;2022-07-03T10:05:35;5.45;;;3.38;;
72573;SDS011;60603;52.548;13.420;2022-07-03T10:08:04;4.75;;;3.03;;
72573;SDS011;60603;52.548;13.420;2022-07-03T10:10:36;6.03;;;2.45;;
72573;SDS011;60603;52.548;13.420;2022-07-03T10:13:04;5.05;;;2.50;;
72573;SDS011;60603;52.548;13.420;2022-07-03T10:15:31;4.32;;;2.30;;
72573;SDS011;60603;52.548;13.420;2022-07-03T10:17:58;5.28;;;2.15;;
72573;SDS011;60603;52.548;13.420;2022-07-03T10:20:29;5.43;;;2.20;;
72573;SDS011;60603;52.548;13.420;2022-07-03T10:23:15;3.47;;;2.10;;
72573;SDS011;60603;52.548;13.420;2022-07-03T10:25:43;4.22;;;2.20;;
72573;SDS011;60603;52.548;13.420;2022-07-03T10:28:13;4.13;;;2.13;;
72573;SDS011;60603;52.548;13.420;2022-07-03T10:30:40;4.00;;;1.98;;
72573;SDS011;60603;52.548;13.420;2022-07-03T10:33:08;5.40;;;2.20;;
72573;SDS011;60603;52.548;13.420;2022-07-03T10:35:34;4.40;;;2.10;;
72573;SDS011;60603;52.548;13.420;2022-07-03T10:43:31;3.70;;;2.00;;
72573;SDS011;60603;52.548;13.420;2022-07-03T10:46:21;5.15;;;2.15;;
72573;SDS011;60603;52.548;13.420;2022-07-03T10:48:51;3.88;;;1.88;;
72573;SDS011;60603;52.548;13.420;2022-07-03T10:51:52;3.97;;;2.03;;
72573;SDS011;60603;52.548;13.420;2022-07-03T10:54:25;3.28;;;2.10;;
72573;SDS011;60603;52.548;13.420;2022-07-03T11:05:07;3.28;;;2.13;;
72573;SDS011;60603;52.548;13.420;2022-07-03T11:13:01;4.00;;;2.20;;
72573;SDS011;60603;52.548;13.420;2022-07-03T11:15:45;5.32;;;2.60;;
72573;SDS011;60603;52.548;13.420;2022-07-03T11:26:18;3.58;;;2.15;;
72573;SDS011;60603;52.548;13.420;2022-07-03T11:33:43;4.07;;;2.20;;
72573;SDS011;60603;52.548;13.420;2022-07-03T11:36:10;3.60;;;2.00;;
72573;SDS011;60603;52.548;13.420;2022-07-03T11:38:41;5.07;;;2.22;;
72573;SDS011;60603;52.548;13.420;2022-07-03T11:41:09;4.00;;;2.10;;
72573;SDS011;60603;52.548;13.420;2022-07-03T11:43:35;3.88;;;2.47;;
72573;SDS011;60603;52.548;13.420;2022-07-03T11:46:01;4.22;;;2.08;;
72573;SDS011;60603;52.548;13.420;2022-07-03T11:48:28;5.70;;;2.50;;
72573;SDS011;60603;52.548;13.420;2022-07-03T11:50:58;4.82;;;2.50;;
72573;SDS011;60603;52.548;13.420;2022-07-03T11:53:27;4.55;;;2.63;;
72573;SDS011;60603;52.548;13.420;2022-07-03T11:55:55;3.50;;;2.10;;
72573;SDS011;60603;52.548;13.420;2022-07-03T11:58:22;3.13;;;2.03;;
72573;SDS011;60603;52.548;13.420;2022-07-03T12:00:48;4.10;;;2.17;;
72573;SDS011;60603;52.548;13.420;2022-07-03T12:03:24;3.88;;;1.90;;
72573;SDS011;60603;52.548;13.420;2022-07-03T12:05:52;4.05;;;2.30;;
72573;SDS011;60603;52.548;13.420;2022-07-03T12:08:36;4.13;;;2.00;;
72573;SDS011;60603;52.548;13.420;2022-07-03T12:11:06;3.83;;;2.08;;
72573;SDS011;60603;52.548;13.420;2022-07-03T12:13:33;4.50;;;1.90;;
72573;SDS011;60603;52.548;13.420;2022-07-03T12:16:09;4.88;;;1.85;;
72573;SDS011;60603;52.548;13.420;2022-07-03T12:18:46;3.67;;;2.03;;
72573;SDS011;60603;52.548;13.420;2022-07-03T12:21:12;5.00;;;1.92;;
72573;SDS011;60603;52.548;13.420;2022-07-03T12:23:49;4.10;;;1.73;;
72573;SDS011;60603;52.548;13.420;2022-07-03T12:26:29;3.92;;;2.30;;
72573;SDS011;60603;52.548;13.420;2022-07-03T12:29:14;6.03;;;2.75;;
72573;SDS011;60603;52.548;13.420;2022-07-03T12:31:41;3.22;;;1.70;;
72573;SDS011;60603;52.548;13.420;2022-07-03T12:34:12;3.80;;;1.88;;
72573;SDS011;60603;52.548;13.420;2022-07-03T12:36:38;4.82;;;1.95;;
72573;SDS011;60603;52.548;13.420;2022-07-03T12:39:04;4.43;;;2.20;;
72573;SDS011;60603;52.548;13.420;2022-07-03T12:41:31;3.70;;;1.85;;
72573;SDS011;60603;52.548;13.420;2022-07-03T12:43:58;4.13;;;2.08;;
72573;SDS011;60603;52.548;13.420;2022-07-03T12:46:25;4.97;;;2.00;;
72573;SDS011;60603;52.548;13.420;2022-07-03T12:48:54;4.65;;;1.90;;
72573;SDS011;60603;52.548;13.420;2022-07-03T12:54:32;4.03;;;1.90;;
72573;SDS011;60603;52.548;13.420;2022-07-03T12:57:03;9.65;;;2.38;;
72573;SDS011;60603;52.548;13.420;2022-07-03T13:02:33;4.20;;;2.15;;
72573;SDS011;60603;52.548;13.420;2022-07-03T13:05:00;3.92;;;2.10;;
72573;SDS011;60603;52.548;13.420;2022-07-03T13:07:29;4.03;;;2.05;;
72573;SDS011;60603;52.548;13.420;2022-07-03T13:09:55;3.20;;;1.80;;
72573;SDS011;60603;52.548;13.420;2022-07-03T13:12:24;4.03;;;2.35;;
72573;SDS011;60603;52.548;13.420;2022-07-03T13:14:59;3.75;;;1.98;;
72573;SDS011;60603;52.548;13.420;2022-07-03T13:20:37;4.07;;;2.10;;
72573;SDS011;60603;52.548;13.420;2022-07-03T13:23:04;4.22;;;1.98;;
72573;SDS011;60603;52.548;13.420;2022-07-03T13:25:32;4.78;;;2.00;;
72573;SDS011;60603;52.548;13.420;2022-07-03T13:28:06;3.40;;;1.63;;
72573;SDS011;60603;52.548;13.420;2022-07-03T13:30:32;4.93;;;2.10;;
72573;SDS011;60603;52.548;13.420;2022-07-03T13:32:58;3.88;;;1.80;;
72573;SDS011;60603;52.548;13.420;2022-07-03T13:35:24;3.80;;;2.05;;
72573;SDS011;60603;52.548;13.420;2022-07-03T13:37:50;3.40;;;1.70;;
72573;SDS011;60603;52.548;13.420;2022-07-03T13:40:16;3.10;;;1.80;;
72573;SDS011;60603;52.548;13.420;2022-07-03T13:42:42;3.17;;;1.60;;
72573;SDS011;60603;52.548;13.420;2022-07-03T13:45:08;3.53;;;2.22;;
72573;SDS011;60603;52.548;13.420;2022-07-03T13:47:33;4.38;;;2.20;;
72573;SDS011;60603;52.548;13.420;2022-07-03T13:49:59;4.13;;;2.35;;
72573;SDS011;60603;52.548;13.420;2022-07-03T13:52:25;3.45;;;2.03;;
72573;SDS011;60603;52.548;13.420;2022-07-03T13:54:51;4.22;;;2.53;;
72573;SDS011;60603;52.548;13.420;2022-07-03T13:57:17;4.68;;;2.10;;
72573;SDS011;60603;52.548;13.420;2022-07-03T13:59:43;3.95;;;1.90;;
72573;SDS011;60603;52.548;13.420;2022-07-03T14:02:08;4.18;;;1.90;;
72573;SDS011;60603;52.548;13.420;2022-07-03T14:04:35;3.47;;;1.90;;
72573;SDS011;60603;52.548;13.420;2022-07-03T14:07:00;6.30;;;2.38;;
72573;SDS011;60603;52.548;13.420;2022-07-03T14:09:26;4.10;;;1.92;;
72573;SDS011;60603;52.548;13.420;2022-07-03T14:11:52;4.43;;;2.22;;
72573;SDS011;60603;52.548;13.420;2022-07-03T14:14:18;3.63;;;1.73;;
72573;SDS011;60603;52.548;13.420;2022-07-03T14:16:43;4.95;;;2.30;;
72573;SDS011;60603;52.548;13.420;2022-07-03T14:19:09;4.00;;;2.05;;
72573;SDS011;60603;52.548;13.420;2022-07-03T14:21:35;4.50;;;2.15;;
72573;SDS011;60603;52.548;13.420;2022-07-03T14:24:00;3.50;;;1.92;;
72573;SDS011;60603;52.548;13.420;2022-07-03T14:26:26;3.97;;;2.25;;
72573;SDS011;60603;52.548;13.420;2022-07-03T14:29:10;3.30;;;1.70;;
72573;SDS011;60603;52.548;13.420;2022-07-03T14:31:55;4.50;;;1.88;;
72573;SDS011;60603;52.548;13.420;2022-07-03T14:34:40;4.10;;;2.47;;
72573;SDS011;60603;52.548;13.420;2022-07-03T14:37:06;3.60;;;1.90;;
72573;SDS011;60603;52.548;13.420;2022-07-03T14:39:33;3.67;;;2.10;;
72573;SDS011;60603;52.548;13.420;2022-07-03T14:41:59;5.25;;;1.95;;
72573;SDS011;60603;52.548;13.420;2022-07-03T14:44:25;4.60;;;1.98;;
72573;SDS011;60603;52.548;13.420;2022-07-03T14:46:51;3.80;;;2.10;;
72573;SDS011;60603;52.548;13.420;2022-07-03T14:49:18;5.28;;;2.17;;
72573;SDS011;60603;52.548;13.420;2022-07-03T14:51:44;5.25;;;2.45;;
72573;SDS011;60603;52.548;13.420;2022-07-03T14:54:10;4.13;;;1.88;;
72573;SDS011;60603;52.548;13.420;2022-07-03T14:56:40;4.57;;;2.00;;
72573;SDS011;60603;52.548;13.420;2022-07-03T14:59:21;5.40;;;2.10;;
72573;SDS011;60603;52.548;13.420;2022-07-03T15:02:12;3.40;;;1.70;;
72573;SDS011;60603;52.548;13.420;2022-07-03T15:07:34;4.05;;;2.15;;
72573;SDS011;60603;52.548;13.420;2022-07-03T15:10:05;5.18;;;2.00;;
72573;SDS011;60603;52.548;13.420;2022-07-03T15:12:32;3.20;;;2.00;;
72573;SDS011;60603;52.548;13.420;2022-07-03T15:14:58;2.90;;;1.80;;
72573;SDS011;60603;52.548;13.420;2022-07-03T15:17:26;4.18;;;2.00;;
72573;SDS011;60603;52.548;13.420;2022-07-03T15:19:54;2.88;;;1.80;;
72573;SDS011;60603;52.548;13.420;2022-07-03T15:22:22;4.10;;;2.38;;
72573;SDS011;60603;52.548;13.420;2022-07-03T15:24:48;5.63;;;2.40;;
72573;SDS011;60603;52.548;13.420;2022-07-03T15:27:19;3.88;;;1.80;;
72573;SDS011;60603;52.548;13.420;2022-07-03T15:29:46;3.63;;;2.42;;
72573;SDS011;60603;52.548;13.420;2022-07-03T15:32:12;5.38;;;2.25;;
72573;SDS011;60603;52.548;13.420;2022-07-03T15:34:39;3.75;;;1.90;;
72573;SDS011;60603;52.548;13.420;2022-07-03T15:37:12;6.88;;;3.30;;
72573;SDS011;60603;52.548;13.420;2022-07-03T15:39:54;5.05;;;2.20;;
72573;SDS011;60603;52.548;13.420;2022-07-03T15:51:46;5.63;;;2.00;;
72573;SDS011;60603;52.548;13.420;2022-07-03T15:56:56;4.35;;;2.30;;
72573;SDS011;60603;52.548;13.420;2022-07-03T15:59:24;3.40;;;1.90;;
72573;SDS011;60603;52.548;13.420;2022-07-03T16:01:54;3.60;;;2.13;;
72573;SDS011;60603;52.548;13.420;2022-07-03T16:07:12;4.97;;;2.47;;
72573;SDS011;60603;52.548;13.420;2022-07-03T16:09:40;5.90;;;2.20;;
72573;SDS011;60603;52.548;13.420;2022-07-03T16:12:09;6.10;;;2.20;;
72573;SDS011;60603;52.548;13.420;2022-07-03T16:14:42;3.90;;;2.45;;
72573;SDS011;60603;52.548;13.420;2022-07-03T16:17:08;4.95;;;2.22;;
72573;SDS011;60603;52.548;13.420;2022-07-03T16:19:34;3.78;;;2.10;;
72573;SDS011;60603;52.548;13.420;2022-07-03T16:22:01;3.92;;;2.22;;
72573;SDS011;60603;52.548;13.420;2022-07-03T16:24:28;3.40;;;2.08;;
72573;SDS011;60603;52.548;13.420;2022-07-03T16:26:53;4.82;;;2.05;;
72573;SDS011;60603;52.548;13.420;2022-07-03T16:29:19;3.72;;;2.10;;
72573;SDS011;60603;52.548;13.420;2022-07-03T16:31:46;5.82;;;2.22;;